Time;durP1;ratioP1;P1;durP2;ratioP2;P2;SDS_P1;SDS_P2;PMS_P1;PMS_P2;Temp;Humidity;BMP_temperature;BMP_pressure;BME280_temperature;BME280_humidity;BME280_pressure;Samples;Min_cycle;Max_cycle;Signal;HPM_P1;HPM_P2
2021/12/06 00:01:20;;;;;;;7.78;5.12;;;3.70;99.90;;;;;;7374976;32;20589;-58
2021/12/06 00:05:25;;;;;;;9.50;5.53;;;3.70;99.90;;;;;;7379655;32;20096;-58
2021/12/06 00:09:29;;;;;;;9.73;5.65;;;3.70;99.90;;;;;;7375479;32;20107;-58
2021/12/06 00:13:31;;;;;;;10.40;5.47;;;3.70;99.90;;;;;;7377335;32;20978;-58
2021/12/06 00:17:33;;;;;;;10.15;5.25;;;3.80;99.90;;;;;;7380830;32;20117;-58
2021/12/06 00:21:35;;;;;;;6.12;4.50;;;3.70;99.90;;;;;;7380485;32;20609;-58
2021/12/06 00:25:38;;;;;;;8.00;4.97;;;3.70;99.90;;;;;;7379749;32;20151;-58
2021/12/06 00:29:39;;;;;;;6.82;4.82;;;3.70;99.90;;;;;;7377153;32;20228;-58
2021/12/06 00:33:42;;;;;;;7.57;4.95;;;3.70;99.90;;;;;;7375994;32;20100;-58
2021/12/06 00:37:55;;;;;;;7.45;4.82;;;3.70;99.90;;;;;;7373782;32;20828;-58
2021/12/06 00:41:56;;;;;;;7.35;5.20;;;3.60;99.90;;;;;;7377009;32;20121;-58
2021/12/06 00:45:58;;;;;;;5.55;4.50;;;3.60;99.90;;;;;;7378694;32;20098;-58
2021/12/06 00:50:00;;;;;;;6.97;4.93;;;3.60;99.90;;;;;;7378714;32;20522;-58
2021/12/06 00:54:02;;;;;;;7.15;4.80;;;3.60;99.90;;;;;;7374189;32;20103;-58
2021/12/06 00:58:04;;;;;;;7.30;5.15;;;3.60;99.90;;;;;;7379629;32;20129;-58
2021/12/06 01:02:07;;;;;;;7.53;5.35;;;3.50;99.90;;;;;;7382739;32;20157;-58
2021/12/06 01:06:11;;;;;;;9.32;6.47;;;3.40;99.90;;;;;;7375511;32;20190;-58
2021/12/06 01:10:13;;;;;;;7.97;5.35;;;3.40;99.90;;;;;;7384094;32;20118;-59
2021/12/06 01:14:15;;;;;;;13.85;4.70;;;3.40;99.90;;;;;;7375978;32;20437;-58
2021/12/06 01:18:18;;;;;;;6.07;4.72;;;3.30;99.90;;;;;;7379997;32;20512;-58
2021/12/06 01:31:13;;;;;;;6.00;4.45;;;3.20;99.90;;;;;;7322959;32;20165;-58
2021/12/06 01:39:35;;;;;;;9.77;4.50;;;3.10;99.90;;;;;;7381346;32;20543;-58
2021/12/06 01:43:37;;;;;;;5.45;4.03;;;3.00;99.90;;;;;;7382730;32;20111;-58
2021/12/06 01:47:40;;;;;;;6.75;4.30;;;3.00;99.90;;;;;;7383872;32;20121;-58
2021/12/06 01:51:44;;;;;;;7.07;4.45;;;2.90;99.90;;;;;;7378165;32;20099;-57
2021/12/06 01:55:46;;;;;;;6.47;3.80;;;2.80;99.90;;;;;;7382009;32;20479;-58
2021/12/06 01:59:48;;;;;;;5.68;3.80;;;2.80;99.90;;;;;;7382191;32;20111;-58
2021/12/06 02:03:50;;;;;;;6.72;4.10;;;2.80;99.90;;;;;;7382840;32;20209;-57
2021/12/06 02:07:52;;;;;;;5.68;3.80;;;2.60;99.90;;;;;;7372567;32;20407;-58
2021/12/06 02:11:58;;;;;;;4.78;3.45;;;2.40;99.90;;;;;;7379816;32;20441;-58
2021/12/06 02:16:02;;;;;;;5.60;3.35;;;2.30;99.90;;;;;;7382044;32;20223;-58
2021/12/06 02:20:23;;;;;;;8.23;3.80;;;2.30;99.90;;;;;;7382043;32;20240;-58
2021/12/06 02:24:25;;;;;;;6.78;3.72;;;2.20;99.90;;;;;;7382696;32;20567;-58
2021/12/06 02:28:27;;;;;;;7.60;3.83;;;2.00;99.90;;;;;;7369080;32;20529;-58
2021/12/06 02:32:29;;;;;;;5.57;3.47;;;2.00;99.90;;;;;;7379814;32;20103;-59
2021/12/06 02:36:31;;;;;;;5.43;3.30;;;2.00;99.90;;;;;;7382717;32;20201;-58
2021/12/06 02:40:36;;;;;;;5.43;4.07;;;2.00;99.90;;;;;;7376911;32;20141;-58
2021/12/06 02:44:38;;;;;;;5.80;3.72;;;2.00;99.90;;;;;;7379338;32;20127;-58
2021/12/06 02:48:40;;;;;;;4.87;3.30;;;2.00;99.90;;;;;;7378635;32;20376;-58
2021/12/06 02:52:42;;;;;;;6.78;3.08;;;2.00;99.90;;;;;;7380630;32;20137;-58
2021/12/06 03:00:55;;;;;;;4.57;3.20;;;2.00;99.90;;;;;;7365893;32;20519;-57
2021/12/06 03:04:58;;;;;;;6.87;3.80;;;2.00;99.90;;;;;;7380054;32;20130;-58
2021/12/06 03:09:21;;;;;;;5.72;3.65;;;2.00;99.90;;;;;;7381596;32;20116;-58
2021/12/06 03:13:23;;;;;;;8.50;3.80;;;2.00;99.90;;;;;;7377125;32;20111;-57
2021/12/06 03:17:28;;;;;;;5.87;3.42;;;2.00;99.90;;;;;;7377550;32;20298;-57
2021/12/06 03:21:29;;;;;;;6.97;3.37;;;1.90;99.90;;;;;;7368211;32;20134;-57
2021/12/06 03:25:31;;;;;;;4.15;2.97;;;1.90;99.90;;;;;;7376302;32;20114;-57
2021/12/06 03:29:33;;;;;;;6.28;3.55;;;1.70;99.90;;;;;;7377970;32;20315;-57
2021/12/06 03:33:37;;;;;;;5.57;3.30;;;1.60;99.90;;;;;;7377415;32;20111;-57
2021/12/06 03:37:40;;;;;;;6.70;3.20;;;1.50;99.90;;;;;;7380928;32;20705;-57
2021/12/06 03:41:41;;;;;;;4.55;3.47;;;1.30;99.90;;;;;;7379371;32;20475;-58
2021/12/06 03:45:43;;;;;;;6.70;3.08;;;1.20;99.90;;;;;;7379662;32;20597;-58
2021/12/06 03:49:45;;;;;;;5.90;3.58;;;1.20;99.90;;;;;;7376085;32;20148;-59
2021/12/06 03:53:47;;;;;;;6.05;3.85;;;1.10;99.90;;;;;;7377873;32;20130;-58
2021/12/06 03:57:48;;;;;;;4.32;3.28;;;1.00;99.90;;;;;;7376033;32;20455;-59
2021/12/06 04:01:51;;;;;;;4.82;3.25;;;0.90;99.90;;;;;;7381083;32;20133;-58
2021/12/06 04:05:55;;;;;;;4.15;3.00;;;0.80;99.90;;;;;;7375257;32;20134;-59
2021/12/06 04:09:56;;;;;;;4.80;3.17;;;0.80;99.90;;;;;;7377548;32;20115;-58
2021/12/06 04:13:58;;;;;;;4.07;3.10;;;0.70;99.90;;;;;;7379916;32;20472;-59
2021/12/06 04:18:00;;;;;;;5.57;3.40;;;0.70;99.90;;;;;;7369509;32;20115;-59
2021/12/06 04:22:03;;;;;;;4.45;2.80;;;0.60;99.90;;;;;;7376994;32;20110;-59
2021/12/06 04:26:06;;;;;;;4.55;3.08;;;0.50;99.90;;;;;;7379566;32;20180;-58
2021/12/06 04:30:10;;;;;;;4.40;3.42;;;0.40;99.90;;;;;;7379800;32;20107;-59
2021/12/06 04:34:13;;;;;;;7.00;3.28;;;0.40;99.90;;;;;;7371162;32;20111;-58
2021/12/06 04:38:15;;;;;;;6.60;3.47;;;0.40;99.90;;;;;;7385766;32;20115;-59
2021/12/06 04:42:18;;;;;;;6.35;3.70;;;0.30;99.90;;;;;;7375776;32;20467;-58
2021/12/06 04:46:20;;;;;;;4.72;3.80;;;0.30;99.90;;;;;;7383747;32;20194;-58
2021/12/06 04:50:26;;;;;;;3.83;3.37;;;0.30;99.90;;;;;;7381740;32;20119;-58
2021/12/06 04:54:33;;;;;;;5.85;3.65;;;0.30;99.90;;;;;;7380521;32;20111;-58
2021/12/06 04:58:39;;;;;;;;;;;0.20;99.90;;;;;;7380389;32;20153;-58
2021/12/06 05:02:41;;;;;;;4.80;3.53;;;0.20;99.90;;;;;;7380050;32;20097;-58
2021/12/06 05:06:47;;;;;;;5.18;3.65;;;0.20;99.90;;;;;;7377481;32;20152;-59
2021/12/06 05:10:50;;;;;;;8.07;3.75;;;0.20;99.90;;;;;;7378429;32;20591;-59
2021/12/06 05:14:51;;;;;;;6.45;3.83;;;0.20;99.90;;;;;;7375449;32;20478;-58
2021/12/06 05:18:53;;;;;;;6.65;4.25;;;0.30;99.90;;;;;;7381012;32;20111;-58
2021/12/06 05:22:56;;;;;;;7.57;4.65;;;0.20;99.90;;;;;;7379796;32;20736;-59
2021/12/06 05:26:59;;;;;;;6.82;4.15;;;0.20;99.90;;;;;;7377452;32;20111;-59
2021/12/06 05:31:01;;;;;;;6.32;4.20;;;0.20;99.90;;;;;;7380665;32;20680;-59
2021/12/06 05:35:08;;;;;;;6.25;4.15;;;0.10;99.90;;;;;;7385926;32;20170;-59
2021/12/06 05:39:10;;;;;;;8.68;5.20;;;0.10;99.90;;;;;;7385873;32;20233;-59
2021/12/06 05:43:13;;;;;;;6.32;4.72;;;0.10;99.90;;;;;;7384669;32;20131;-59
2021/12/06 05:47:16;;;;;;;8.93;4.97;;;0.10;99.90;;;;;;7383905;32;20199;-59
2021/12/06 05:51:18;;;;;;;8.60;4.70;;;0.10;99.90;;;;;;7385855;32;20130;-58
2021/12/06 05:55:20;;;;;;;11.75;4.87;;;0.20;99.90;;;;;;7382510;32;20716;-58
2021/12/06 05:59:22;;;;;;;7.30;5.10;;;0.20;99.90;;;;;;7370364;32;20115;-58
2021/12/06 06:03:24;;;;;;;13.35;6.45;;;0.20;99.90;;;;;;7375822;32;20111;-58
2021/12/06 06:07:26;;;;;;;12.68;5.25;;;0.10;99.90;;;;;;7370511;32;20321;-59
2021/12/06 06:11:28;;;;;;;7.60;5.12;;;0.10;99.90;;;;;;7376772;32;20103;-59
2021/12/06 06:15:30;;;;;;;9.82;5.30;;;0.10;99.90;;;;;;7379629;32;20130;-59
2021/12/06 06:19:32;;;;;;;11.05;5.55;;;0.10;99.90;;;;;;7384695;32;20679;-59
2021/12/06 06:23:34;;;;;;;10.93;5.80;;;0.10;99.90;;;;;;7384096;32;20510;-58
2021/12/06 06:27:36;;;;;;;9.13;5.68;;;0.10;99.90;;;;;;7380749;32;20115;-59
2021/12/06 06:31:39;;;;;;;9.88;5.18;;;0.20;99.90;;;;;;7383082;32;20157;-60
2021/12/06 06:35:41;;;;;;;25.08;13.13;;;0.20;99.90;;;;;;7379570;32;20224;-59
2021/12/06 06:39:43;;;;;;;17.45;9.68;;;0.30;99.90;;;;;;7382120;32;20119;-59
2021/12/06 06:43:46;;;;;;;10.25;7.05;;;0.40;99.90;;;;;;7378452;32;20202;-58
2021/12/06 06:47:48;;;;;;;10.18;5.65;;;0.50;99.90;;;;;;7368286;32;20192;-58
2021/12/06 06:51:50;;;;;;;9.52;5.85;;;0.50;99.90;;;;;;7366623;32;20551;-59
2021/12/06 06:55:53;;;;;;;9.15;6.18;;;0.50;99.90;;;;;;7379902;32;20115;-59
2021/12/06 06:59:55;;;;;;;10.40;6.18;;;0.50;99.90;;;;;;7375229;32;20111;-58
2021/12/06 07:03:57;;;;;;;19.33;10.38;;;0.40;99.90;;;;;;7373315;32;20106;-58
2021/12/06 07:07:58;;;;;;;14.95;8.57;;;0.40;99.90;;;;;;7376214;32;20130;-58
2021/12/06 07:12:00;;;;;;;9.80;5.95;;;0.30;99.90;;;;;;7381783;32;20148;-58
2021/12/06 07:16:03;;;;;;;9.48;5.68;;;0.20;99.90;;;;;;7378508;32;20114;-58
2021/12/06 07:20:10;;;;;;;11.48;6.70;;;0.20;99.90;;;;;;7380453;32;20141;-59
2021/12/06 07:24:12;;;;;;;10.10;5.80;;;0.10;99.90;;;;;;7382052;32;20842;-59
2021/12/06 07:28:14;;;;;;;9.05;6.80;;;0.10;99.90;;;;;;7381199;32;20561;-60
2021/12/06 07:32:15;;;;;;;10.75;7.85;;;0.10;99.90;;;;;;7374713;32;20240;-58
2021/12/06 07:36:20;;;;;;;10.00;7.53;;;0.00;99.90;;;;;;7376967;32;20273;-58
2021/12/06 07:40:21;;;;;;;11.40;7.93;;;0.00;99.90;;;;;;7372853;32;20288;-58
2021/12/06 07:44:23;;;;;;;9.00;6.70;;;0.00;99.90;;;;;;7374547;32;20218;-59
2021/12/06 07:48:26;;;;;;;8.77;6.05;;;0.00;99.90;;;;;;7375637;32;20110;-59
2021/12/06 07:52:28;;;;;;;8.65;5.82;;;-0.10;99.90;;;;;;7382674;32;20131;-59
2021/12/06 07:56:30;;;;;;;9.50;5.93;;;0.00;99.90;;;;;;7377676;32;20115;-59
2021/12/06 08:00:34;;;;;;;8.93;5.47;;;-0.10;99.90;;;;;;7375994;32;20228;-59
2021/12/06 08:04:38;;;;;;;11.00;6.28;;;0.00;99.90;;;;;;7381955;32;20114;-58
2021/12/06 08:08:40;;;;;;;12.25;6.97;;;0.00;99.90;;;;;;7371359;32;20115;-58
2021/12/06 08:12:42;;;;;;;11.40;6.80;;;-0.10;99.90;;;;;;7375321;32;20132;-58
2021/12/06 08:16:44;;;;;;;14.02;7.25;;;0.00;99.90;;;;;;7375138;32;20135;-58
2021/12/06 08:20:46;;;;;;;13.55;7.00;;;0.00;99.90;;;;;;7380879;32;20103;-59
2021/12/06 08:24:48;;;;;;;12.65;7.93;;;0.00;99.90;;;;;;7376471;32;20107;-58
2021/12/06 08:28:50;;;;;;;16.35;9.05;;;0.00;99.90;;;;;;7381351;32;20477;-58
2021/12/06 08:32:58;;;;;;;14.13;9.00;;;0.10;99.90;;;;;;7381467;32;20235;-59
2021/12/06 08:37:11;;;;;;;20.70;7.62;;;0.10;99.90;;;;;;7375772;32;20542;-58
2021/12/06 08:41:17;;;;;;;13.48;7.30;;;0.20;99.90;;;;;;7364979;32;20115;-59
2021/12/06 08:45:19;;;;;;;14.73;8.30;;;0.20;99.90;;;;;;7380266;32;20123;-58
2021/12/06 08:49:21;;;;;;;15.05;7.53;;;0.30;99.90;;;;;;7381037;32;20111;-59
2021/12/06 08:53:23;;;;;;;15.73;9.93;;;0.30;99.90;;;;;;7379483;32;20197;-58
2021/12/06 08:57:25;;;;;;;14.68;7.45;;;0.30;99.90;;;;;;7380726;32;20115;-58
2021/12/06 09:01:28;;;;;;;19.67;11.12;;;0.40;99.90;;;;;;7376548;32;20224;-58
2021/12/06 09:05:52;;;;;;;15.32;8.43;;;0.50;99.90;;;;;;7377310;32;20138;-58
2021/12/06 09:09:56;;;;;;;11.75;7.07;;;0.70;99.90;;;;;;7378184;32;20119;-58
2021/12/06 09:13:57;;;;;;;11.82;7.62;;;0.90;99.90;;;;;;7380381;32;20130;-59
2021/12/06 09:17:59;;;;;;;15.50;8.13;;;1.20;99.90;;;;;;7373468;32;20114;-59
2021/12/06 09:22:02;;;;;;;14.70;9.07;;;1.30;99.90;;;;;;7381294;32;20107;-58
2021/12/06 09:26:04;;;;;;;16.62;10.95;;;1.40;99.90;;;;;;7375009;32;20136;-59
2021/12/06 09:30:08;;;;;;;16.23;9.95;;;1.60;99.90;;;;;;7381924;32;20110;-59
2021/12/06 09:34:10;;;;;;;16.77;11.12;;;1.80;99.90;;;;;;7372842;32;20515;-59
2021/12/06 09:38:16;;;;;;;17.87;11.65;;;1.90;99.90;;;;;;7379857;32;20632;-59
2021/12/06 09:42:19;;;;;;;17.17;11.77;;;2.00;99.90;;;;;;7385242;32;20534;-59
2021/12/06 09:46:21;;;;;;;20.77;12.25;;;2.10;99.90;;;;;;7371321;32;20134;-59
2021/12/06 09:50:27;;;;;;;20.88;13.48;;;2.20;99.90;;;;;;7382140;32;20261;-59
2021/12/06 09:54:34;;;;;;;23.73;13.02;;;2.40;99.90;;;;;;7372395;32;20149;-59
2021/12/06 09:58:37;;;;;;;19.17;12.52;;;2.60;99.90;;;;;;7378506;32;20125;-59
2021/12/06 10:02:38;;;;;;;19.42;11.25;;;2.70;99.90;;;;;;7384215;32;20168;-59
2021/12/06 10:06:42;;;;;;;25.73;15.93;;;2.70;99.90;;;;;;7380248;32;20511;-60
2021/12/06 10:10:44;;;;;;;36.85;19.98;;;2.80;99.90;;;;;;7383113;32;20471;-59
2021/12/06 10:14:46;;;;;;;29.80;18.17;;;3.00;99.90;;;;;;7385161;32;20126;-59
2021/12/06 10:18:48;;;;;;;29.15;18.23;;;3.10;99.90;;;;;;7377416;32;20478;-59
2021/12/06 10:22:51;;;;;;;31.27;19.42;;;3.30;99.90;;;;;;7383816;32;20111;-59
2021/12/06 10:27:13;;;;;;;37.65;20.95;;;3.50;99.90;;;;;;7377844;32;20111;-58
2021/12/06 10:31:15;;;;;;;37.65;21.55;;;3.60;99.90;;;;;;7379443;32;20141;-59
2021/12/06 10:35:17;;;;;;;39.60;23.15;;;3.50;99.90;;;;;;7373720;32;20107;-59
2021/12/06 10:39:19;;;;;;;45.95;26.48;;;3.80;99.90;;;;;;7380095;32;20106;-59
2021/12/06 10:43:20;;;;;;;46.92;27.35;;;3.90;99.90;;;;;;7383108;32;20111;-59
2021/12/06 10:47:22;;;;;;;55.00;26.60;;;3.90;99.90;;;;;;7376135;32;20221;-59
2021/12/06 10:51:29;;;;;;;51.65;26.98;;;3.90;99.90;;;;;;7373716;32;20134;-59
2021/12/06 10:55:32;;;;;;;54.22;27.70;;;3.80;99.90;;;;;;7381337;32;20191;-59
2021/12/06 10:59:37;;;;;;;60.45;29.75;;;3.70;99.90;;;;;;7382769;32;20148;-59
2021/12/06 11:03:47;;;;;;;61.17;29.90;;;3.70;99.90;;;;;;7378802;32;20229;-59
2021/12/06 11:07:57;;;;;;;61.30;30.73;;;3.60;99.90;;;;;;7375142;32;20171;-59
2021/12/06 11:12:01;;;;;;;63.67;32.13;;;3.50;99.90;;;;;;7381351;32;20110;-59
2021/12/06 11:16:12;;;;;;;67.50;32.13;;;3.50;99.90;;;;;;7382709;32;20213;-59
2021/12/06 11:20:21;;;;;;;61.13;30.90;;;3.50;99.90;;;;;;7381936;32;20129;-59
2021/12/06 11:24:52;;;;;;;70.70;31.92;;;3.50;99.90;;;;;;7375658;32;20228;-59
2021/12/06 11:28:54;;;;;;;67.47;31.08;;;3.30;99.90;;;;;;7368109;32;20141;-59
2021/12/06 11:32:57;;;;;;;71.68;34.08;;;3.50;99.90;;;;;;7378984;32;20115;-59
2021/12/06 11:36:59;;;;;;;77.05;33.83;;;3.60;99.90;;;;;;7374326;32;20111;-59
2021/12/06 11:41:01;;;;;;;75.62;33.97;;;3.40;99.90;;;;;;7374303;32;20520;-59
2021/12/06 11:45:03;;;;;;;78.15;33.95;;;3.60;99.90;;;;;;7370488;32;20198;-59
2021/12/06 11:49:26;;;;;;;72.57;32.85;;;3.60;99.90;;;;;;7372244;32;20447;-59
2021/12/06 11:53:53;;;;;;;73.45;34.72;;;3.90;99.90;;;;;;7380747;32;20772;-59
2021/12/06 11:57:54;;;;;;;70.40;34.95;;;3.90;99.90;;;;;;7373623;32;20563;-59
2021/12/06 12:01:56;;;;;;;69.87;32.72;;;3.90;99.90;;;;;;7371459;32;20123;-59
2021/12/06 12:05:59;;;;;;;65.35;30.92;;;3.90;99.90;;;;;;7372011;32;20178;-59
2021/12/06 12:10:03;;;;;;;62.70;29.35;;;4.00;99.90;;;;;;7373096;32;20130;-59
2021/12/06 12:14:11;;;;;;;57.35;26.40;;;4.00;99.90;;;;;;7370494;32;20111;-59
2021/12/06 12:18:12;;;;;;;60.08;27.10;;;4.10;99.90;;;;;;7371521;32;20740;-59
2021/12/06 12:22:30;;;;;;;52.83;25.00;;;4.10;99.90;;;;;;7373174;32;20470;-59
2021/12/06 12:26:31;;;;;;;47.92;24.80;;;4.00;99.90;;;;;;7372096;32;20114;-59
2021/12/06 12:30:35;;;;;;;47.83;23.58;;;4.00;99.90;;;;;;7372743;32;20284;-59
2021/12/06 12:34:41;;;;;;;52.97;24.42;;;3.90;99.90;;;;;;7367660;32;20129;-59
2021/12/06 12:38:47;;;;;;;50.50;23.70;;;3.90;99.90;;;;;;7369921;32;20202;-59
2021/12/06 12:43:05;;;;;;;53.22;25.65;;;3.90;99.90;;;;;;7367890;32;20111;-59
2021/12/06 12:47:24;;;;;;;53.63;25.67;;;3.90;99.90;;;;;;7379288;32;20475;-59
2021/12/06 12:51:32;;;;;;;52.67;25.95;;;4.00;99.90;;;;;;7381134;32;20107;-59
2021/12/06 12:55:45;;;;;;;53.95;28.48;;;4.00;99.90;;;;;;7382207;32;20137;-59
2021/12/06 12:59:57;;;;;;;54.70;26.80;;;4.10;99.90;;;;;;7383040;32;20111;-59
2021/12/06 13:04:00;;;;;;;51.05;26.30;;;4.20;99.90;;;;;;7378942;32;20363;-60
2021/12/06 13:08:04;;;;;;;55.42;28.23;;;4.20;99.90;;;;;;7386108;32;20133;-59
2021/12/06 13:12:06;;;;;;;56.60;28.52;;;4.20;99.90;;;;;;7385996;32;20110;-59
2021/12/06 13:20:37;;;;;;;48.00;25.27;;;4.30;99.90;;;;;;7378995;32;20214;-59
2021/12/06 13:24:47;;;;;;;48.00;26.23;;;4.30;99.90;;;;;;7382097;32;20354;-59
2021/12/06 13:29:05;;;;;;;48.35;26.10;;;4.20;99.90;;;;;;7375747;32;20131;-58
2021/12/06 13:33:12;;;;;;;49.80;24.98;;;4.30;99.90;;;;;;7376449;32;20189;-59
2021/12/06 13:37:14;;;;;;;48.20;24.45;;;4.30;99.90;;;;;;7384000;32;20263;-59
2021/12/06 13:41:16;;;;;;;46.17;24.23;;;4.30;99.90;;;;;;7376807;32;20573;-59
2021/12/06 13:45:25;;;;;;;41.85;23.65;;;4.30;99.90;;;;;;7374395;32;20111;-59
2021/12/06 13:49:26;;;;;;;41.10;22.50;;;4.30;99.90;;;;;;7376877;32;20107;-59
2021/12/06 13:53:34;;;;;;;39.42;21.48;;;4.20;99.90;;;;;;7384702;32;20138;-59
2021/12/06 13:57:36;;;;;;;;;;;4.20;99.90;;;;;;7384052;32;20123;-59
2021/12/06 14:01:39;;;;;;;37.13;21.05;;;4.20;99.90;;;;;;7378929;32;20234;-59
2021/12/06 14:05:43;;;;;;;38.25;21.70;;;4.10;99.90;;;;;;7377391;32;20167;-59
2021/12/06 14:09:49;;;;;;;33.55;20.50;;;4.20;99.90;;;;;;7380196;32;20523;-59
2021/12/06 14:13:52;;;;;;;33.65;19.87;;;4.20;99.90;;;;;;7373710;32;20111;-59
2021/12/06 14:17:55;;;;;;;39.17;21.70;;;4.20;99.90;;;;;;7379804;32;20153;-58
2021/12/06 14:21:59;;;;;;;38.22;21.05;;;4.00;99.90;;;;;;7380276;32;20137;-59
2021/12/06 14:26:03;;;;;;;34.28;19.87;;;4.00;99.90;;;;;;7379041;32;20133;-59
2021/12/06 14:30:18;;;;;;;39.17;20.60;;;3.90;99.90;;;;;;7370046;32;20119;-60
2021/12/06 14:34:23;;;;;;;34.30;19.50;;;3.90;99.90;;;;;;7377657;32;20584;-59
2021/12/06 14:38:28;;;;;;;35.13;19.90;;;3.90;99.90;;;;;;7374700;32;20137;-60
2021/12/06 14:42:30;;;;;;;40.65;20.48;;;3.80;99.90;;;;;;7375849;32;20179;-60
2021/12/06 14:46:32;;;;;;;34.03;20.35;;;3.70;99.90;;;;;;7379774;32;20146;-61
2021/12/06 14:51:00;;;;;;;43.25;21.40;;;3.70;99.90;;;;;;7379729;32;20477;-60
2021/12/06 15:00:11;;;;;;;41.05;22.05;;;3.60;99.90;;;;;;7380383;32;20111;-59
2021/12/06 15:04:28;;;;;;;47.75;23.10;;;3.50;99.90;;;;;;7374183;32;20114;-60
2021/12/06 15:08:33;;;;;;;41.20;22.37;;;3.50;99.90;;;;;;7369347;32;20138;-60
2021/12/06 15:12:36;;;;;;;38.73;21.83;;;3.50;99.90;;;;;;7374271;32;20639;-60
2021/12/06 15:16:39;;;;;;;46.65;22.80;;;3.40;99.90;;;;;;7368957;32;20226;-61
2021/12/06 15:20:43;;;;;;;42.45;22.37;;;3.40;99.90;;;;;;7366651;32;20174;-60
2021/12/06 15:24:51;;;;;;;47.75;23.98;;;3.30;99.90;;;;;;7372318;32;20468;-60
2021/12/06 15:28:56;;;;;;;40.75;23.10;;;3.20;99.90;;;;;;7380006;32;20235;-60
2021/12/06 15:33:03;;;;;;;44.97;23.92;;;3.10;99.90;;;;;;7380800;32;20153;-60
2021/12/06 15:37:08;;;;;;;48.58;23.42;;;3.10;99.90;;;;;;7378836;32;20170;-59
2021/12/06 15:41:22;;;;;;;49.05;25.45;;;3.10;99.90;;;;;;7383212;32;20227;-60
2021/12/06 15:45:26;;;;;;;49.15;24.83;;;3.10;99.90;;;;;;7381489;32;20229;-60
2021/12/06 15:49:29;;;;;;;50.12;25.45;;;3.00;99.90;;;;;;7381992;32;20221;-60
2021/12/06 15:53:30;;;;;;;42.15;23.10;;;3.10;99.90;;;;;;7369991;32;20141;-60
2021/12/06 15:57:37;;;;;;;41.63;21.05;;;3.10;99.90;;;;;;7381022;32;20483;-60
2021/12/06 16:01:44;;;;;;;39.33;19.85;;;3.10;99.90;;;;;;7383003;32;20506;-60
2021/12/06 16:05:47;;;;;;;30.48;16.30;;;3.10;99.90;;;;;;7375379;32;20170;-60
2021/12/06 16:09:48;;;;;;;29.42;15.00;;;3.20;99.90;;;;;;7381974;32;20546;-61
2021/12/06 16:13:52;;;;;;;29.35;13.35;;;3.20;99.90;;;;;;7376540;32;20595;-60
2021/12/06 16:18:01;;;;;;;20.55;11.90;;;3.20;99.90;;;;;;7370165;32;20210;-59
2021/12/06 16:22:04;;;;;;;18.70;10.45;;;3.20;99.90;;;;;;7371738;32;20111;-61
2021/12/06 16:26:18;;;;;;;16.12;8.55;;;3.20;99.90;;;;;;7371273;32;20139;-59
2021/12/06 16:30:21;;;;;;;10.13;6.50;;;3.20;99.90;;;;;;7379605;32;21848;-59
2021/12/06 16:34:26;;;;;;;10.27;6.10;;;3.30;99.90;;;;;;7379249;32;20112;-59
2021/12/06 16:38:31;;;;;;;11.23;5.12;;;3.30;99.90;;;;;;7383750;32;20134;-58
2021/12/06 16:42:58;;;;;;;8.20;4.90;;;3.30;99.90;;;;;;7366248;32;20198;-59
2021/12/06 16:47:07;;;;;;;8.45;5.07;;;3.30;99.90;;;;;;7386862;32;20152;-59
2021/12/06 16:51:09;;;;;;;8.45;4.60;;;3.30;99.90;;;;;;7383529;32;20134;-59
2021/12/06 16:55:15;;;;;;;9.20;4.70;;;3.30;99.90;;;;;;7387475;32;20119;-59
2021/12/06 16:59:17;;;;;;;9.02;4.32;;;3.40;99.90;;;;;;7377945;32;20130;-59
2021/12/06 17:03:29;;;;;;;6.75;4.15;;;3.30;99.90;;;;;;7378408;32;20125;-59
2021/12/06 17:07:34;;;;;;;7.10;3.80;;;3.40;99.90;;;;;;7387275;32;20102;-59
2021/12/06 17:11:38;;;;;;;6.20;3.97;;;3.30;99.90;;;;;;7379467;32;20107;-60
2021/12/06 17:15:41;;;;;;;6.62;4.18;;;3.40;99.90;;;;;;7386169;32;20112;-60
2021/12/06 17:19:43;;;;;;;6.75;3.75;;;3.40;99.90;;;;;;7387105;32;20195;-60
2021/12/06 17:23:47;;;;;;;6.03;3.72;;;3.30;99.90;;;;;;7380032;32;20111;-60
2021/12/06 17:27:49;;;;;;;6.82;4.40;;;3.40;99.90;;;;;;7386749;32;20141;-60
2021/12/06 17:31:59;;;;;;;6.28;3.65;;;3.40;99.90;;;;;;7377101;32;20129;-60
2021/12/06 17:36:03;;;;;;;5.45;3.62;;;3.40;99.90;;;;;;7371596;32;20156;-59
2021/12/06 17:40:05;;;;;;;4.90;3.28;;;3.40;99.90;;;;;;7384018;32;20145;-60
2021/12/06 17:44:09;;;;;;;5.50;3.30;;;3.40;99.90;;;;;;7384063;32;20613;-60
2021/12/06 17:48:11;;;;;;;6.05;3.62;;;3.50;99.90;;;;;;7375059;32;20139;-60
2021/12/06 17:52:13;;;;;;;5.10;3.80;;;3.60;99.90;;;;;;7378635;32;20145;-60
2021/12/06 17:56:16;;;;;;;6.35;3.80;;;3.60;99.90;;;;;;7380411;32;20100;-60
2021/12/06 18:00:18;;;;;;;6.00;3.78;;;3.60;99.90;;;;;;7371841;32;20852;-60
2021/12/06 18:04:24;;;;;;;7.15;4.18;;;3.60;99.90;;;;;;7385167;32;20485;-60
2021/12/06 18:08:26;;;;;;;8.75;4.05;;;3.60;99.90;;;;;;7381557;32;20125;-60
2021/12/06 18:12:28;;;;;;;6.93;4.03;;;3.70;99.90;;;;;;7384925;32;20138;-60
2021/12/06 18:16:30;;;;;;;8.18;5.15;;;3.70;99.90;;;;;;7378385;32;20111;-59
2021/12/06 18:20:32;;;;;;;9.93;4.62;;;3.80;99.90;;;;;;7372952;32;20145;-60
2021/12/06 18:24:33;;;;;;;8.75;4.75;;;3.70;99.90;;;;;;7378459;32;20573;-60
2021/12/06 18:28:36;;;;;;;7.30;4.28;;;3.80;99.90;;;;;;7379636;32;20118;-60
2021/12/06 18:32:39;;;;;;;8.52;4.60;;;3.70;99.90;;;;;;7383713;32;20125;-60
2021/12/06 18:36:43;;;;;;;9.05;4.47;;;3.70;99.90;;;;;;7378718;32;20126;-60
2021/12/06 18:40:50;;;;;;;10.07;4.78;;;3.60;99.90;;;;;;7375201;32;20526;-60
2021/12/06 18:44:52;;;;;;;8.95;5.20;;;3.60;99.90;;;;;;7377717;32;20135;-61
2021/12/06 18:48:54;;;;;;;9.52;4.62;;;3.50;99.90;;;;;;7382793;32;20107;-60
2021/12/06 18:53:00;;;;;;;7.57;4.85;;;3.40;99.90;;;;;;7375494;32;20139;-60
2021/12/06 18:57:04;;;;;;;7.90;4.75;;;3.50;99.90;;;;;;7379164;32;20709;-59
2021/12/06 19:01:08;;;;;;;8.75;4.90;;;3.40;99.90;;;;;;7383207;32;20106;-60
2021/12/06 19:05:10;;;;;;;8.77;5.25;;;3.30;99.90;;;;;;7382925;32;20122;-60
2021/12/06 19:09:12;;;;;;;7.93;5.15;;;3.40;99.90;;;;;;7381106;32;20115;-60
2021/12/06 19:13:14;;;;;;;8.32;5.12;;;3.40;99.90;;;;;;7383027;32;20220;-60
2021/12/06 19:17:16;;;;;;;9.05;5.10;;;3.40;99.90;;;;;;7384693;32;20160;-60
2021/12/06 19:21:19;;;;;;;8.07;4.47;;;3.50;99.90;;;;;;7379783;32;20110;-60
2021/12/06 19:25:22;;;;;;;7.25;4.40;;;3.50;99.90;;;;;;7381200;32;20119;-59
2021/12/06 19:29:24;;;;;;;7.50;4.12;;;3.50;99.90;;;;;;7370506;32;20557;-60
2021/12/06 19:33:27;;;;;;;8.02;4.57;;;3.40;99.90;;;;;;7380786;32;20129;-60
2021/12/06 19:37:29;;;;;;;7.80;3.97;;;3.40;99.90;;;;;;7383995;32;20190;-60
2021/12/06 19:41:31;;;;;;;7.72;3.92;;;3.50;99.90;;;;;;7382448;32;20123;-59
2021/12/06 19:45:35;;;;;;;8.45;4.22;;;3.50;99.90;;;;;;7383304;32;20119;-59
2021/12/06 19:49:38;;;;;;;5.30;3.35;;;3.50;99.90;;;;;;7380283;32;20126;-59
2021/12/06 19:53:40;;;;;;;7.37;4.18;;;3.40;99.90;;;;;;7374613;32;20218;-59
2021/12/06 19:57:42;;;;;;;6.62;4.22;;;3.40;99.90;;;;;;7372121;32;20461;-59
2021/12/06 20:01:44;;;;;;;6.70;3.83;;;3.40;99.90;;;;;;7378174;32;20218;-59
2021/12/06 20:05:47;;;;;;;5.80;3.67;;;3.40;99.90;;;;;;7378228;32;20110;-60
2021/12/06 20:09:48;;;;;;;6.30;4.12;;;3.50;99.90;;;;;;7368377;32;20475;-58
2021/12/06 20:13:51;;;;;;;6.15;3.67;;;3.40;99.90;;;;;;7379751;32;20574;-60
2021/12/06 20:18:13;;;;;;;6.28;3.33;;;3.40;99.90;;;;;;7383021;32;20118;-60
2021/12/06 20:22:15;;;;;;;6.20;3.95;;;3.50;99.90;;;;;;7381646;32;20118;-59
2021/12/06 20:26:20;;;;;;;5.60;3.53;;;3.50;99.90;;;;;;7381805;32;20229;-60
2021/12/06 20:30:22;;;;;;;6.30;3.87;;;3.60;99.90;;;;;;7379032;32;20107;-60
2021/12/06 20:34:24;;;;;;;6.35;3.37;;;3.50;99.90;;;;;;7370404;32;20244;-60
2021/12/06 20:38:25;;;;;;;5.93;3.70;;;3.40;99.90;;;;;;7377169;32;20169;-58
2021/12/06 20:42:27;;;;;;;8.13;4.30;;;3.40;99.90;;;;;;7377157;32;20106;-58
2021/12/06 20:46:29;;;;;;;7.70;4.60;;;3.40;99.90;;;;;;7380502;32;20479;-59
2021/12/06 20:50:31;;;;;;;5.62;3.80;;;3.50;99.90;;;;;;7381156;32;20197;-59
2021/12/06 20:54:34;;;;;;;7.70;4.40;;;3.50;99.90;;;;;;7380161;32;20835;-59
2021/12/06 20:58:36;;;;;;;9.18;4.78;;;3.40;99.90;;;;;;7382241;32;20111;-59
2021/12/06 21:02:39;;;;;;;9.35;4.55;;;3.40;99.90;;;;;;7371624;32;20216;-60
2021/12/06 21:06:41;;;;;;;7.55;4.78;;;3.30;99.90;;;;;;7375579;32;20115;-58
2021/12/06 21:10:48;;;;;;;8.98;5.15;;;3.30;99.90;;;;;;7373459;32;20130;-58
2021/12/06 21:15:05;;;;;;;8.90;5.00;;;3.30;99.90;;;;;;7373502;32;20677;-59
2021/12/06 21:19:15;;;;;;;9.15;4.62;;;3.20;99.90;;;;;;7384231;32;20111;-58
2021/12/06 21:23:17;;;;;;;8.57;5.18;;;3.10;99.90;;;;;;7374334;32;20115;-59
2021/12/06 21:27:20;;;;;;;9.30;5.55;;;3.00;99.90;;;;;;7385600;32;20915;-59
2021/12/06 21:31:22;;;;;;;10.50;5.43;;;3.00;99.90;;;;;;7383977;32;20111;-58
2021/12/06 21:35:24;;;;;;;9.25;5.25;;;2.80;99.90;;;;;;7379763;32;20258;-59
2021/12/06 21:39:26;;;;;;;11.05;5.78;;;2.70;99.90;;;;;;7378445;32;20194;-58
2021/12/06 21:43:28;;;;;;;8.93;4.97;;;2.70;99.90;;;;;;7376566;32;20471;-59